createdAt,value
2023-04-13T00:01:50.952Z,15.50
2023-04-13T00:04:19.458Z,17.50
2023-04-13T00:06:50.854Z,17.00
2023-04-13T00:09:21.702Z,15.90
2023-04-13T00:11:51.344Z,15.60
2023-04-13T00:14:19.696Z,15.40
2023-04-13T00:16:54.643Z,15.30
2023-04-13T00:19:24.406Z,13.90
2023-04-13T00:21:54.112Z,11.20
2023-04-13T00:24:24.511Z,7.20
2023-04-13T00:26:54.842Z,6.50
2023-04-13T00:29:25.692Z,6.10
2023-04-13T00:31:54.379Z,5.40
2023-04-13T00:34:24.132Z,6.20
2023-04-13T00:36:54.370Z,6.40
2023-04-13T00:39:23.360Z,6.40
2023-04-13T00:41:53.670Z,6.00
2023-04-13T00:44:24.117Z,6.20
2023-04-13T00:46:55.496Z,5.00
2023-04-13T00:49:25.454Z,4.40
2023-04-13T00:51:55.031Z,5.40
2023-04-13T00:54:23.949Z,4.70
2023-04-13T00:56:54.489Z,5.40
2023-04-13T00:59:23.568Z,4.90
2023-04-13T01:01:56.616Z,4.50
2023-04-13T01:04:27.805Z,3.80
2023-04-13T01:06:56.259Z,3.60
2023-04-13T01:09:32.636Z,3.70
2023-04-13T01:12:36.014Z,3.80
2023-04-13T01:15:14.878Z,3.90
2023-04-13T01:18:07.475Z,4.30
2023-04-13T01:20:43.806Z,3.80
2023-04-13T01:23:31.608Z,10.00
2023-04-13T01:26:07.349Z,3.70
2023-04-13T01:28:40.097Z,4.10
2023-04-13T01:31:14.062Z,3.90
2023-04-13T01:36:12.752Z,4.10
2023-04-13T01:38:42.743Z,3.60
2023-04-13T01:41:13.351Z,3.70
2023-04-13T01:43:47.684Z,3.80
2023-04-13T01:46:21.794Z,3.90
2023-04-13T01:49:00.757Z,3.40
2023-04-13T01:52:06.238Z,3.60
2023-04-13T01:57:08.982Z,4.20
2023-04-13T01:59:38.723Z,3.90
2023-04-13T02:02:07.992Z,3.40
2023-04-13T02:04:37.797Z,3.10
2023-04-13T02:07:08.081Z,3.20
2023-04-13T02:09:40.388Z,3.30
2023-04-13T02:12:08.986Z,3.40
2023-04-13T02:14:40.919Z,3.40
2023-04-13T02:17:10.003Z,3.30
2023-04-13T02:19:38.574Z,2.50
2023-04-13T02:22:08.806Z,2.60
2023-04-13T02:24:42.565Z,3.70
2023-04-13T02:27:11.146Z,2.30
2023-04-13T02:29:39.909Z,2.80
2023-04-13T02:32:08.425Z,2.30
2023-04-13T02:34:38.853Z,3.10
2023-04-13T02:37:09.512Z,3.30
2023-04-13T02:39:39.685Z,2.60
2023-04-13T02:42:17.876Z,2.50
2023-04-13T02:44:46.783Z,2.80
2023-04-13T02:47:15.230Z,3.00
2023-04-13T02:49:46.589Z,3.60
2023-04-13T02:52:23.736Z,3.20
2023-04-13T02:54:57.914Z,3.60
2023-04-13T02:57:29.971Z,3.90
2023-04-13T02:59:58.946Z,4.40
2023-04-13T03:02:36.103Z,3.70
2023-04-13T03:05:09.646Z,3.80
2023-04-13T03:07:39.105Z,3.70
2023-04-13T03:10:11.291Z,3.60
2023-04-13T03:12:42.194Z,3.60
2023-04-13T03:15:12.315Z,4.80
2023-04-13T03:17:41.895Z,3.90
2023-04-13T03:20:13.602Z,4.10
2023-04-13T03:22:45.368Z,4.70
2023-04-13T03:25:14.177Z,4.40
2023-04-13T03:27:43.301Z,4.70
2023-04-13T03:30:12.267Z,4.50
2023-04-13T03:33:08.191Z,4.20
2023-04-13T03:35:39.159Z,4.80
2023-04-13T03:38:11.780Z,4.20
2023-04-13T03:40:44.661Z,4.60
2023-04-13T03:43:13.805Z,4.60
2023-04-13T03:45:46.872Z,4.70
2023-04-13T03:48:16.891Z,5.50
2023-04-13T03:50:45.650Z,4.40
2023-04-13T03:53:15.594Z,4.60
2023-04-13T03:55:45.094Z,4.30
2023-04-13T03:58:15.861Z,5.00
2023-04-13T04:00:45.069Z,5.10
2023-04-13T04:03:25.925Z,5.80
2023-04-13T04:06:05.524Z,4.80
2023-04-13T04:08:39.743Z,6.00
2023-04-13T04:11:13.038Z,6.30
2023-04-13T04:13:41.376Z,4.70
2023-04-13T04:16:12.137Z,4.70
2023-04-13T04:18:45.529Z,4.90
2023-04-13T04:21:16.287Z,5.10
2023-04-13T04:23:45.996Z,4.40
2023-04-13T04:26:16.206Z,4.50
2023-04-13T04:28:50.889Z,3.90
2023-04-13T04:33:53.600Z,5.40
2023-04-13T04:36:24.393Z,5.20
2023-04-13T04:39:02.871Z,4.80
2023-04-13T04:41:37.905Z,5.00
2023-04-13T04:44:07.990Z,5.20
2023-04-13T04:46:42.147Z,5.70
2023-04-13T04:49:15.599Z,5.90
2023-04-13T04:51:44.886Z,6.00
2023-04-13T04:54:17.438Z,7.70
2023-04-13T04:56:48.294Z,8.30
2023-04-13T04:59:20.147Z,9.40
2023-04-13T05:01:58.343Z,10.50
2023-04-13T05:04:26.939Z,10.40
2023-04-13T05:06:55.936Z,9.90
2023-04-13T05:09:26.851Z,9.70
2023-04-13T05:11:56.508Z,9.60
2023-04-13T05:14:24.964Z,10.90
2023-04-13T05:16:54.779Z,10.30
2023-04-13T05:19:30.066Z,9.90
2023-04-13T05:22:03.477Z,8.80
2023-04-13T05:24:39.452Z,9.10
2023-04-13T05:27:12.205Z,9.20
2023-04-13T05:29:47.956Z,9.40
2023-04-13T05:32:19.778Z,8.20
2023-04-13T05:34:50.011Z,8.80
2023-04-13T05:37:25.345Z,9.10
2023-04-13T05:39:54.196Z,9.40
2023-04-13T05:42:26.501Z,10.40
2023-04-13T05:44:55.580Z,9.60
2023-04-13T05:47:25.116Z,9.10
2023-04-13T05:49:57.314Z,10.30
2023-04-13T05:52:26.600Z,9.10
2023-04-13T05:54:54.879Z,8.30
2023-04-13T05:57:30.184Z,7.60
2023-04-13T05:59:59.297Z,8.40
2023-04-13T06:05:14.669Z,8.40
2023-04-13T06:07:46.776Z,9.20
2023-04-13T06:10:17.230Z,6.40
2023-04-13T06:12:48.868Z,6.20
2023-04-13T06:15:21.933Z,7.10
2023-04-13T06:17:53.702Z,7.40
2023-04-13T06:20:24.339Z,5.50
2023-04-13T06:22:53.208Z,5.30
2023-04-13T06:25:22.870Z,5.20
2023-04-13T06:27:54.836Z,5.40
2023-04-13T06:30:23.736Z,5.70
2023-04-13T06:32:56.190Z,5.40
2023-04-13T06:35:25.668Z,9.20
2023-04-13T06:37:54.590Z,5.00
2023-04-13T06:40:32.641Z,5.90
2023-04-13T06:43:08.947Z,6.10
2023-04-13T06:46:01.837Z,7.00
2023-04-13T06:48:32.390Z,6.50
2023-04-13T06:51:01.927Z,6.60
2023-04-13T06:53:31.234Z,7.20
2023-04-13T06:56:01.846Z,7.60
2023-04-13T06:58:32.367Z,8.10
2023-04-13T07:01:01.113Z,8.40
2023-04-13T07:03:51.727Z,9.30
2023-04-13T07:06:22.619Z,11.10
2023-04-13T07:08:52.951Z,9.90
2023-04-13T07:11:29.036Z,11.80
2023-04-13T07:14:00.086Z,12.30
2023-04-13T07:16:28.682Z,18.40
2023-04-13T07:18:57.763Z,11.90
2023-04-13T07:21:27.832Z,12.40
2023-04-13T07:24:07.502Z,11.90
2023-04-13T07:26:41.415Z,13.20
2023-04-13T07:29:13.934Z,12.50
2023-04-13T07:31:46.074Z,13.00
2023-04-13T07:34:15.469Z,10.80
2023-04-13T07:36:46.424Z,15.40
2023-04-13T07:39:19.828Z,10.60
2023-04-13T07:41:50.052Z,11.10
2023-04-13T07:44:26.724Z,10.50
2023-04-13T07:46:56.832Z,11.60
2023-04-13T07:49:26.263Z,13.80
2023-04-13T07:51:55.070Z,12.60
2023-04-13T07:54:24.073Z,12.90
2023-04-13T07:56:53.187Z,12.70
2023-04-13T07:59:27.523Z,14.20
2023-04-13T08:01:56.552Z,12.70
2023-04-13T08:04:26.052Z,14.10
2023-04-13T08:06:55.446Z,12.50
2023-04-13T08:09:27.279Z,10.80
2023-04-13T08:11:56.194Z,10.80
2023-04-13T08:14:26.144Z,9.90
2023-04-13T08:16:55.580Z,9.50
2023-04-13T08:19:24.430Z,9.50
2023-04-13T08:21:55.942Z,11.10
2023-04-13T08:24:26.443Z,9.60
2023-04-13T08:26:58.458Z,8.90
2023-04-13T08:29:27.946Z,9.10
2023-04-13T08:31:58.364Z,7.00
2023-04-13T08:34:27.629Z,6.40
2023-04-13T08:36:56.204Z,7.20
2023-04-13T08:39:27.480Z,7.20
2023-04-13T08:41:57.891Z,7.00
2023-04-13T08:44:28.566Z,7.00
2023-04-13T08:47:00.429Z,7.00
2023-04-13T08:49:33.383Z,6.10
2023-04-13T08:52:26.820Z,7.00
2023-04-13T08:55:01.201Z,6.60
2023-04-13T08:57:34.587Z,6.70
2023-04-13T09:00:17.354Z,6.80
2023-04-13T09:03:03.091Z,6.30
2023-04-13T09:05:39.236Z,6.50
2023-04-13T09:08:10.036Z,6.20
2023-04-13T09:10:42.556Z,5.50
2023-04-13T09:13:11.562Z,5.80
2023-04-13T09:15:43.695Z,6.40
2023-04-13T09:18:30.315Z,6.20
2023-04-13T09:21:06.048Z,5.30
2023-04-13T09:23:35.284Z,6.20
2023-04-13T09:26:13.275Z,6.80
2023-04-13T09:28:52.150Z,6.30
2023-04-13T09:31:21.433Z,6.20
2023-04-13T09:33:52.230Z,6.80
2023-04-13T09:36:28.591Z,9.00
2023-04-13T09:38:58.213Z,9.10
2023-04-13T09:41:38.181Z,8.80
2023-04-13T09:44:19.064Z,9.20
2023-04-13T09:47:02.214Z,10.50
2023-04-13T09:49:43.235Z,15.20
2023-04-13T09:52:23.654Z,11.70
2023-04-13T09:54:55.386Z,11.90
2023-04-13T09:57:33.273Z,13.50
2023-04-13T10:00:07.448Z,13.30
2023-04-13T10:02:43.423Z,13.30
2023-04-13T10:05:12.552Z,14.50
2023-04-13T10:07:47.232Z,26.10
2023-04-13T10:10:15.601Z,17.60
2023-04-13T10:12:49.869Z,18.00
2023-04-13T10:15:18.181Z,18.30
2023-04-13T10:18:04.425Z,19.70
2023-04-13T10:20:36.758Z,19.20
2023-04-13T10:23:06.716Z,18.00
2023-04-13T10:25:39.689Z,20.00
2023-04-13T10:28:08.597Z,18.20
2023-04-13T10:30:50.290Z,18.10
2023-04-13T10:33:20.800Z,19.90
2023-04-13T10:35:59.989Z,20.50
2023-04-13T10:38:30.354Z,21.90
2023-04-13T10:40:59.518Z,24.00
2023-04-13T10:43:32.258Z,23.30
2023-04-13T10:46:08.265Z,25.90
2023-04-13T10:48:37.899Z,26.80
2023-04-13T10:51:07.712Z,26.70
2023-04-13T10:53:37.089Z,25.60
2023-04-13T10:56:19.329Z,25.20
2023-04-13T10:58:53.539Z,27.00
2023-04-13T11:01:23.136Z,26.80
2023-04-13T11:04:03.785Z,24.50
2023-04-13T11:06:38.711Z,25.80
2023-04-13T11:09:08.285Z,27.10
2023-04-13T11:11:37.944Z,30.40
2023-04-13T11:14:07.074Z,26.70
2023-04-13T11:16:46.320Z,29.10
2023-04-13T11:19:15.196Z,27.00
2023-04-13T11:21:45.724Z,27.90
2023-04-13T11:24:24.170Z,29.40
2023-04-13T11:26:52.900Z,29.00
2023-04-13T11:29:24.977Z,28.80
2023-04-13T11:31:53.944Z,31.40
2023-04-13T11:34:26.572Z,30.20
2023-04-13T11:37:02.529Z,26.90
2023-04-13T11:40:21.688Z,30.40
2023-04-13T11:42:55.486Z,26.20
2023-04-13T11:45:29.536Z,27.80
2023-04-13T11:47:58.728Z,30.10
2023-04-13T11:50:29.737Z,32.80
2023-04-13T11:52:59.312Z,33.20
2023-04-13T11:55:27.746Z,32.50
2023-04-13T11:57:56.918Z,31.70
2023-04-13T12:00:27.834Z,33.50
2023-04-13T12:03:03.173Z,33.60
2023-04-13T12:05:34.460Z,38.30
2023-04-13T12:08:07.358Z,36.60
2023-04-13T12:10:43.431Z,36.70
2023-04-13T12:13:35.364Z,35.60
2023-04-13T12:16:16.242Z,35.00
2023-04-13T12:18:49.498Z,33.80
2023-04-13T12:21:20.808Z,30.30
2023-04-13T12:24:02.682Z,32.10
2023-04-13T12:27:16.368Z,38.40
2023-04-13T12:29:22.504Z,30.60
2023-04-13T12:31:52.441Z,26.20
2023-04-13T12:34:22.872Z,28.80
2023-04-13T12:36:51.627Z,29.10
2023-04-13T12:39:20.799Z,28.40
2023-04-13T12:41:49.261Z,28.60
2023-04-13T12:44:20.046Z,29.80
2023-04-13T12:46:49.966Z,28.50
2023-04-13T12:49:18.375Z,30.30
2023-04-13T12:51:47.085Z,29.50
2023-04-13T12:54:18.241Z,28.90
2023-04-13T12:56:47.043Z,28.70
2023-04-13T12:59:16.875Z,27.50
2023-04-13T13:01:45.598Z,29.50
2023-04-13T13:04:14.744Z,31.10
2023-04-13T13:06:44.069Z,32.30
2023-04-13T13:09:12.854Z,27.30
2023-04-13T13:11:42.123Z,28.80
2023-04-13T13:14:11.338Z,28.50
2023-04-13T13:16:40.429Z,25.90
2023-04-13T13:19:11.306Z,24.10
2023-04-13T13:21:40.938Z,23.40
2023-04-13T13:24:09.475Z,21.30
2023-04-13T13:27:00.068Z,22.80
2023-04-13T13:29:31.812Z,22.20
2023-04-13T13:32:06.761Z,19.80
2023-04-13T13:34:36.154Z,21.00
2023-04-13T13:37:05.767Z,20.00
2023-04-13T13:39:35.681Z,19.90
2023-04-13T13:42:05.412Z,19.50
2023-04-13T13:44:35.130Z,24.00
2023-04-13T13:47:05.414Z,22.50
2023-04-13T13:49:34.004Z,22.70
2023-04-13T13:52:23.535Z,22.50
2023-04-13T13:54:54.933Z,24.50
2023-04-13T13:57:23.228Z,24.20
2023-04-13T13:59:52.010Z,24.60
2023-04-13T14:02:21.153Z,26.40
2023-04-13T14:04:49.863Z,24.90
2023-04-13T14:07:23.535Z,25.70
2023-04-13T14:09:52.491Z,27.60
2023-04-13T14:12:20.739Z,28.50
2023-04-13T14:14:53.623Z,26.30
2023-04-13T14:17:24.635Z,28.30
2023-04-13T14:19:53.748Z,30.00
2023-04-13T14:22:22.433Z,31.20
2023-04-13T14:24:54.684Z,31.60
2023-04-13T14:27:23.068Z,29.80
2023-04-13T14:29:51.785Z,32.30
2023-04-13T14:32:22.881Z,36.20
2023-04-13T14:34:51.399Z,34.90
2023-04-13T14:37:20.690Z,33.70
2023-04-13T14:39:49.941Z,33.90
2023-04-13T14:42:18.943Z,33.10
2023-04-13T14:44:47.812Z,35.10
2023-04-13T14:47:16.347Z,37.10
2023-04-13T14:49:45.637Z,34.20
2023-04-13T14:52:14.875Z,39.40
2023-04-13T14:54:46.780Z,39.60
2023-04-13T14:57:16.345Z,38.90
2023-04-13T14:59:45.251Z,42.40
2023-04-13T15:02:15.995Z,43.70
2023-04-13T15:04:45.470Z,42.10
2023-04-13T15:07:14.256Z,43.50
2023-04-13T15:09:43.139Z,44.60
2023-04-13T15:12:14.028Z,43.60
2023-04-13T15:14:46.857Z,44.50
2023-04-13T15:17:15.507Z,45.60
2023-04-13T15:19:48.016Z,44.30
2023-04-13T15:22:18.690Z,43.10
2023-04-13T15:24:47.158Z,44.40
2023-04-13T15:27:15.625Z,41.20
2023-04-13T15:29:44.744Z,45.10
2023-04-13T15:32:13.651Z,44.40
2023-04-13T15:34:42.111Z,43.60
2023-04-13T15:37:10.643Z,44.00
2023-04-13T15:39:38.968Z,45.20
2023-04-13T15:42:07.282Z,42.30
2023-04-13T15:44:35.976Z,43.00
2023-04-13T15:47:04.400Z,48.40
2023-04-13T15:49:33.158Z,45.40
2023-04-13T15:52:01.473Z,43.20
2023-04-13T15:54:30.470Z,44.30
2023-04-13T15:56:59.456Z,44.90
2023-04-13T15:59:30.820Z,42.50
2023-04-13T16:01:59.258Z,42.10
2023-04-13T16:04:27.906Z,45.30
2023-04-13T16:07:11.722Z,43.40
2023-04-13T16:09:44.091Z,46.30
2023-04-13T16:12:12.856Z,47.50
2023-04-13T16:14:45.582Z,47.00
2023-04-13T16:17:18.858Z,48.60
2023-04-13T16:19:50.929Z,46.30
2023-04-13T16:22:19.182Z,47.00
2023-04-13T16:24:52.335Z,51.40
2023-04-13T16:27:23.538Z,51.30
2023-04-13T16:29:52.317Z,51.40
2023-04-13T16:32:20.675Z,51.50
2023-04-13T16:34:49.207Z,51.60
2023-04-13T16:37:17.787Z,49.60
2023-04-13T16:39:47.810Z,49.30
2023-04-13T16:42:19.581Z,47.00
2023-04-13T16:44:47.812Z,44.90
2023-04-13T16:47:18.782Z,44.70
2023-04-13T16:49:47.049Z,45.90
2023-04-13T16:52:15.329Z,48.60
2023-04-13T16:54:45.288Z,49.10
2023-04-13T16:57:13.632Z,49.10
2023-04-13T16:59:41.876Z,51.20
2023-04-13T17:02:24.370Z,51.10
2023-04-13T17:04:59.002Z,47.00
2023-04-13T17:07:29.914Z,48.00
2023-04-13T17:10:18.846Z,50.60
2023-04-13T17:12:48.345Z,52.90
2023-04-13T17:15:19.122Z,54.30
2023-04-13T17:17:48.270Z,54.70
2023-04-13T17:20:17.338Z,60.90
2023-04-13T17:22:46.195Z,57.30
2023-04-13T17:25:16.614Z,54.70
2023-04-13T17:27:45.166Z,57.90
2023-04-13T17:30:14.091Z,55.90
2023-04-13T17:32:58.793Z,55.00
2023-04-13T17:35:27.714Z,54.60
2023-04-13T17:37:56.360Z,54.50
2023-04-13T17:40:31.518Z,54.00
2023-04-13T17:43:00.198Z,54.20
2023-04-13T17:45:28.706Z,54.80
2023-04-13T17:48:02.850Z,52.20
2023-04-13T17:50:33.140Z,55.30
2023-04-13T17:53:04.487Z,52.20
2023-04-13T17:55:37.067Z,53.20
2023-04-13T17:58:06.166Z,53.90
2023-04-13T18:00:34.944Z,56.00
2023-04-13T18:03:05.770Z,53.40
2023-04-13T18:05:35.751Z,54.20
2023-04-13T18:08:04.327Z,53.20
2023-04-13T18:10:33.910Z,58.60
2023-04-13T18:13:08.042Z,59.10
2023-04-13T18:15:39.072Z,56.50
2023-04-13T18:18:07.615Z,53.50
2023-04-13T18:20:39.884Z,55.20
2023-04-13T18:23:09.314Z,54.20
2023-04-13T18:25:38.618Z,49.50
2023-04-13T18:28:07.162Z,49.80
2023-04-13T18:30:36.733Z,47.50
2023-04-13T18:33:05.480Z,45.30
2023-04-13T18:35:33.827Z,45.90
2023-04-13T18:38:06.878Z,44.30
2023-04-13T18:40:35.323Z,43.50
2023-04-13T18:43:03.768Z,41.80
2023-04-13T18:45:32.459Z,40.60
2023-04-13T18:48:00.786Z,36.90
2023-04-13T18:50:29.819Z,30.70
2023-04-13T18:53:00.547Z,27.80
2023-04-13T18:55:29.768Z,23.80
2023-04-13T18:57:59.041Z,22.30
2023-04-13T19:00:27.500Z,19.30
2023-04-13T19:02:57.834Z,18.50
2023-04-13T19:05:26.594Z,18.00
2023-04-13T19:08:00.637Z,16.90
2023-04-13T19:10:31.627Z,17.20
2023-04-13T19:13:00.047Z,15.60
2023-04-13T19:15:36.154Z,16.90
2023-04-13T19:18:04.816Z,17.80
2023-04-13T19:20:33.230Z,17.00
2023-04-13T19:23:01.573Z,19.70
2023-04-13T19:25:34.849Z,20.10
2023-04-13T19:28:05.378Z,20.80
2023-04-13T19:30:33.757Z,22.70
2023-04-13T19:33:02.963Z,23.80
2023-04-13T19:35:31.891Z,25.80
2023-04-13T19:38:00.159Z,27.00
2023-04-13T19:40:33.550Z,29.60
2023-04-13T19:43:02.763Z,32.90
2023-04-13T19:45:31.409Z,29.40
2023-04-13T19:48:00.135Z,30.90
2023-04-13T19:50:30.006Z,31.00
2023-04-13T19:52:58.782Z,33.00
2023-04-13T19:55:28.662Z,36.40
2023-04-13T19:57:57.313Z,34.70
2023-04-13T20:00:29.603Z,36.40
2023-04-13T20:03:20.618Z,37.60
2023-04-13T20:05:49.713Z,37.50
2023-04-13T20:08:18.384Z,36.40
2023-04-13T20:10:46.803Z,38.10
2023-04-13T20:13:17.896Z,39.40
2023-04-13T20:15:46.685Z,38.90
2023-04-13T20:18:15.062Z,36.50
2023-04-13T20:20:44.781Z,39.60
2023-04-13T20:23:13.165Z,37.30
2023-04-13T20:25:41.479Z,40.80
2023-04-13T20:28:10.510Z,44.50
2023-04-13T20:30:39.756Z,46.20
2023-04-13T20:33:17.108Z,44.30
2023-04-13T20:35:45.524Z,42.60
2023-04-13T20:38:14.257Z,35.80
2023-04-13T20:40:46.076Z,30.10
2023-04-13T20:43:20.655Z,25.90
2023-04-13T20:45:49.128Z,25.10
2023-04-13T20:50:50.520Z,21.00
2023-04-13T20:53:20.479Z,20.10
2023-04-13T20:55:49.039Z,20.60
2023-04-13T20:58:17.475Z,20.60
2023-04-13T21:00:45.886Z,17.90
2023-04-13T21:03:16.524Z,17.80
2023-04-13T21:05:46.091Z,17.10
2023-04-13T21:08:14.634Z,18.50
2023-04-13T21:10:50.080Z,15.50
2023-04-13T21:13:19.006Z,15.10
2023-04-13T21:15:47.695Z,16.40
2023-04-13T21:18:17.415Z,17.00
2023-04-13T21:20:46.400Z,16.90
2023-04-13T21:23:14.741Z,16.90
2023-04-13T21:25:44.700Z,17.80
2023-04-13T21:28:16.265Z,17.90
2023-04-13T21:30:44.560Z,16.30
2023-04-13T21:33:14.834Z,17.40
2023-04-13T21:35:43.187Z,18.30
2023-04-13T21:38:11.554Z,17.40
2023-04-13T21:40:39.808Z,18.70
2023-04-13T21:43:09.195Z,20.80
2023-04-13T21:45:38.421Z,23.20
2023-04-13T21:48:06.779Z,20.80
2023-04-13T21:50:35.119Z,19.50
2023-04-13T21:53:04.863Z,23.30
2023-04-13T21:55:33.542Z,19.20
2023-04-13T21:58:01.874Z,24.40
2023-04-13T22:00:30.937Z,21.90
2023-04-13T22:03:00.757Z,22.90
2023-04-13T22:05:29.281Z,24.40
2023-04-13T22:07:58.207Z,21.00
2023-04-13T22:10:28.151Z,20.60
2023-04-13T22:12:56.642Z,20.40
2023-04-13T22:15:32.518Z,23.70
2023-04-13T22:18:01.215Z,24.90
2023-04-13T22:20:30.467Z,19.20
2023-04-13T22:22:58.884Z,16.40
2023-04-13T22:25:28.265Z,18.40
2023-04-13T22:27:56.572Z,18.20
2023-04-13T22:30:29.110Z,18.30
2023-04-13T22:32:58.405Z,18.20
2023-04-13T22:35:26.788Z,20.30
2023-04-13T22:37:59.855Z,19.00
2023-04-13T22:40:28.776Z,19.70
2023-04-13T22:42:57.411Z,18.60
2023-04-13T22:45:26.508Z,19.10
2023-04-13T22:47:55.641Z,17.50
2023-04-13T22:50:24.209Z,21.80
2023-04-13T22:52:55.892Z,21.10
2023-04-13T22:55:25.734Z,19.60
2023-04-13T22:57:54.202Z,18.80
2023-04-13T23:00:22.528Z,18.80
2023-04-13T23:03:13.451Z,20.20
2023-04-13T23:05:43.019Z,19.10
2023-04-13T23:08:11.796Z,18.60
2023-04-13T23:10:41.660Z,20.40
2023-04-13T23:13:10.017Z,22.20
2023-04-13T23:15:39.665Z,22.70
2023-04-13T23:18:08.834Z,23.40
2023-04-13T23:20:37.401Z,23.90
2023-04-13T23:23:05.726Z,23.20
2023-04-13T23:25:34.318Z,24.00
2023-04-13T23:28:02.544Z,27.30
2023-04-13T23:30:31.359Z,27.60
2023-04-13T23:33:02.535Z,24.60
2023-04-13T23:35:31.380Z,25.10
2023-04-13T23:37:59.644Z,24.90
2023-04-13T23:40:28.081Z,25.20
2023-04-13T23:42:56.810Z,24.00
2023-04-13T23:45:30.991Z,22.90
2023-04-13T23:48:00.041Z,22.80
2023-04-13T23:50:29.014Z,23.60
2023-04-13T23:52:57.646Z,24.20
2023-04-13T23:55:27.912Z,24.40
2023-04-13T23:57:56.336Z,22.60
